»·PEaware :: N153MS KLAS-KPSP

N153MS :: KLAS-KPSP

FLIGHT INFORMATION

Flight Status: Arrived
Operator: Privately registered:
United States
More flights under this callsign
Pilot: Shane N. (25833)
Aircraft: MOONEY M-20K/M ENCORE BRAVO
(M20T)
More flights by this aircraft type
Origin: KLAS McCarran Intl
United States
Destination: KPSP Palm Springs Intl
United States
More flights between these airports :: More routes between these airports
Route: +V538 TNP SBONO1
File this flight plan on PilotEdge
Remarks:
Altitude:
(Current/Filed)
12,000ft
Speed:
(Current/Filed)
170kts
Departed: 13-Feb-20 09:05 PM
Arrived: 13-Feb-20 10:02 PM
Distance/Time
Traveled:
151nm/0:57
Distance/Time
To Go:
Arrived

Flight Plot

Page will automatically refresh every two minutes.

Flight plan parsing failed; only flown route is shown


Map Options




Map Legend


Flown Route
Filed Route
Departure Airport
Arrival Airport
Navaid (VOR, NDB)
Fix

Horizontal Profiles

Position Reports

Time Latitude Longitude Heading Altitude Ground
Speed
13-Feb-20 20:49 36.099470 -115.160117 231 2092ft 0kts
13-Feb-20 20:50 36.099470 -115.160117 231 2092ft 0kts
13-Feb-20 20:51 36.099470 -115.160117 231 2092ft 0kts
13-Feb-20 20:52 36.099470 -115.160117 231 2092ft 0kts
13-Feb-20 20:53 36.099470 -115.160117 231 2092ft 0kts
13-Feb-20 20:54 36.099470 -115.160117 231 2092ft 0kts
13-Feb-20 20:55 36.099470 -115.160117 231 2092ft 0kts
13-Feb-20 20:56 36.099470 -115.160117 231 2092ft 0kts
13-Feb-20 20:57 36.099470 -115.160117 231 2092ft 0kts
13-Feb-20 20:58 36.099470 -115.160117 231 2092ft 0kts
13-Feb-20 20:59 36.099470 -115.160117 231 2092ft 0kts
13-Feb-20 21:00 36.099170 -115.158210 114 2087ft 6kts
13-Feb-20 21:01 36.099135 -115.158116 114 2087ft 0kts
13-Feb-20 21:02 36.099135 -115.158116 114 2087ft 0kts
13-Feb-20 21:03 36.097666 -115.157571 206 2088ft 40kts
13-Feb-20 21:04 36.072645 -115.169279 186 3148ft 114kts
13-Feb-20 21:05 36.041045 -115.174720 186 4770ft 119kts
13-Feb-20 21:06 36.000986 -115.181124 186 4875ft 168kts
13-Feb-20 21:07 35.949454 -115.189221 186 4871ft 190kts
13-Feb-20 21:08 35.899458 -115.197045 186 5607ft 173kts
13-Feb-20 21:09 35.853059 -115.196307 176 6800ft 166kts
13-Feb-20 21:10 35.809833 -115.193966 176 8511ft 139kts
13-Feb-20 21:11 35.774790 -115.188222 161 10274ft 126kts
13-Feb-20 21:12 35.741222 -115.174030 159 11798ft 134kts
13-Feb-20 21:14 35.664064 -115.174396 170 11869ft 211kts
13-Feb-20 21:15 35.576673 -115.171266 180 11880ft 205kts
13-Feb-20 21:16 35.519646 -115.171951 180 11880ft 202kts
13-Feb-20 21:17 35.464104 -115.172605 180 11881ft 198kts
13-Feb-20 21:19 35.410475 -115.173232 180 11881ft 200kts
13-Feb-20 21:20 35.364844 -115.173771 180 11881ft 200kts
13-Feb-20 21:21 35.308924 -115.174430 180 11881ft 199kts
13-Feb-20 21:22 35.253124 -115.175084 180 11881ft 200kts
13-Feb-20 21:23 35.197291 -115.175740 180 11881ft 200kts
13-Feb-20 21:24 35.141275 -115.176416 181 11878ft 200kts
13-Feb-20 21:25 35.087993 -115.195892 199 11881ft 200kts
13-Feb-20 21:26 35.035305 -115.218953 199 11881ft 200kts
13-Feb-20 21:27 34.982734 -115.242155 199 11881ft 200kts
13-Feb-20 21:28 34.930311 -115.265277 199 11881ft 200kts
13-Feb-20 21:29 34.877663 -115.288456 199 11881ft 206kts
13-Feb-20 21:30 34.823298 -115.312380 199 11881ft 208kts
13-Feb-20 21:31 34.769240 -115.336136 199 11881ft 204kts
13-Feb-20 21:32 34.716344 -115.359328 199 11881ft 202kts
13-Feb-20 21:33 34.663681 -115.382389 199 11884ft 202kts
13-Feb-20 21:34 34.610773 -115.405528 199 11890ft 202kts
13-Feb-20 21:35 34.557813 -115.428660 199 11890ft 202kts
13-Feb-20 21:36 34.504864 -115.451755 199 11890ft 202kts
13-Feb-20 21:37 34.451693 -115.474916 199 11877ft 203kts
13-Feb-20 21:38 34.398428 -115.498088 199 11871ft 203kts
13-Feb-20 21:39 34.348467 -115.519792 199 11871ft 203kts
13-Feb-20 21:39 34.308872 -115.549971 221 11871ft 203kts
13-Feb-20 21:40 34.266154 -115.597134 223 11152ft 208kts
13-Feb-20 21:42 34.218717 -115.650499 222 10240ft 202kts
13-Feb-20 21:42 34.184060 -115.689465 222 9560ft 200kts
13-Feb-20 21:43 34.149150 -115.728679 222 8870ft 198kts
13-Feb-20 21:44 34.108072 -115.772691 215 8067ft 196kts
13-Feb-20 21:45 34.065065 -115.808236 213 7871ft 175kts
13-Feb-20 21:46 34.034679 -115.851878 232 7871ft 167kts
13-Feb-20 21:47 34.006993 -115.896708 232 7871ft 165kts
13-Feb-20 21:48 33.979639 -115.941086 232 7871ft 164kts
13-Feb-20 21:49 33.959807 -115.994570 253 7270ft 185kts
13-Feb-20 21:50 33.944707 -116.054527 252 6872ft 186kts
13-Feb-20 21:51 33.929477 -116.114828 252 6872ft 188kts
13-Feb-20 21:52 33.914176 -116.175308 252 6871ft 188kts
13-Feb-20 21:53 33.885647 -116.226821 227 6665ft 191kts
13-Feb-20 21:54 33.849649 -116.273751 227 5762ft 186kts
13-Feb-20 21:55 33.817644 -116.321289 232 4858ft 177kts
13-Feb-20 21:56 33.789272 -116.365693 235 3871ft 161kts
13-Feb-20 21:57 33.766783 -116.411040 246 2866ft 156kts
13-Feb-20 21:58 33.774413 -116.454101 295 1837ft 114kts
13-Feb-20 21:59 33.794106 -116.476131 322 1043ft 88kts
13-Feb-20 22:00 33.811678 -116.491765 320 681ft 79kts
13-Feb-20 22:01 33.826318 -116.504689 323 414ft 31kts
13-Feb-20 22:02 33.828838 -116.508143 272 425ft 0kts
13-Feb-20 22:03 33.828646 -116.509979 271 427ft 15kts
13-Feb-20 22:04 33.828228 -116.511921 270 428ft 0kts

Navigation Log

Ident Type
Flight plan parsing failed, navigation log unavailable